createdAt,value
2023-03-24T00:00:02.094Z,0.00
2023-03-24T00:01:02.071Z,0.00
2023-03-24T00:02:02.063Z,0.00
2023-03-24T00:03:02.227Z,0.00
2023-03-24T00:04:02.134Z,0.00
2023-03-24T00:05:02.035Z,0.00
2023-03-24T00:06:02.010Z,0.00
2023-03-24T00:07:02.065Z,0.00
2023-03-24T00:08:02.543Z,0.00
2023-03-24T00:09:02.036Z,0.00
2023-03-24T00:10:01.983Z,0.00
2023-03-24T00:11:02.015Z,0.00
2023-03-24T00:12:02.018Z,0.00
2023-03-24T00:13:01.962Z,0.00
2023-03-24T00:14:02.001Z,0.00
2023-03-24T00:15:01.996Z,0.00
2023-03-24T00:16:01.954Z,0.00
2023-03-24T00:17:02.177Z,0.00
2023-03-24T00:18:01.962Z,0.00
2023-03-24T00:19:01.917Z,0.00
2023-03-24T00:20:01.875Z,0.00
2023-03-24T00:21:02.279Z,0.00
2023-03-24T00:22:01.848Z,0.00
2023-03-24T00:23:01.849Z,0.00
2023-03-24T00:24:01.845Z,0.00
2023-03-24T00:25:01.826Z,0.00
2023-03-24T00:26:01.837Z,0.00
2023-03-24T00:27:01.829Z,0.00
2023-03-24T00:28:01.822Z,0.00
2023-03-24T00:29:01.770Z,0.00
2023-03-24T00:30:01.777Z,0.00
2023-03-24T00:31:01.849Z,0.00
2023-03-24T00:32:01.878Z,0.00
2023-03-24T00:33:01.894Z,0.00
2023-03-24T00:34:01.739Z,0.00
2023-03-24T00:35:01.753Z,0.00
2023-03-24T00:36:01.754Z,0.00
2023-03-24T00:37:01.698Z,0.00
2023-03-24T00:38:01.711Z,0.00
2023-03-24T00:39:01.718Z,0.00
2023-03-24T00:40:01.700Z,0.00
2023-03-24T00:41:01.696Z,0.00
2023-03-24T00:42:01.701Z,0.00
2023-03-24T00:43:01.715Z,0.00
2023-03-24T00:44:01.740Z,0.00
2023-03-24T00:45:01.640Z,0.00
2023-03-24T00:46:01.604Z,0.00
2023-03-24T00:47:01.636Z,0.00
2023-03-24T00:48:01.617Z,0.00
2023-03-24T00:49:01.652Z,0.00
2023-03-24T00:50:01.564Z,0.00
2023-03-24T00:51:01.575Z,0.00
2023-03-24T00:52:01.556Z,0.00
2023-03-24T00:53:01.540Z,0.00
2023-03-24T00:54:01.529Z,0.00
2023-03-24T00:55:01.524Z,0.00
2023-03-24T00:56:01.511Z,0.00
2023-03-24T00:57:01.565Z,0.00
2023-03-24T00:58:01.513Z,0.00
2023-03-24T00:59:01.596Z,0.00
2023-03-24T01:00:01.486Z,0.00
2023-03-24T01:01:01.657Z,0.00
2023-03-24T01:02:01.689Z,0.00
2023-03-24T01:03:01.499Z,0.00
2023-03-24T01:04:01.479Z,0.00
2023-03-24T01:05:01.615Z,0.00
2023-03-24T01:06:03.080Z,0.00
2023-03-24T01:07:01.629Z,0.00
2023-03-24T01:08:01.532Z,0.00
2023-03-24T01:09:01.387Z,0.00
2023-03-24T01:10:01.383Z,0.00
2023-03-24T01:11:01.583Z,0.00
2023-03-24T01:12:01.347Z,0.00
2023-03-24T01:13:01.329Z,0.00
2023-03-24T01:14:01.326Z,0.00
2023-03-24T01:15:01.364Z,0.00
2023-03-24T01:16:01.303Z,0.00
2023-03-24T01:17:01.311Z,0.00
2023-03-24T01:18:01.297Z,0.00
2023-03-24T01:19:01.318Z,0.00
2023-03-24T01:20:02.208Z,0.00
2023-03-24T01:21:01.302Z,0.00
2023-03-24T01:22:01.282Z,0.00
2023-03-24T01:23:01.280Z,0.00
2023-03-24T01:24:01.233Z,0.00
2023-03-24T01:25:01.210Z,0.00
2023-03-24T01:26:08.058Z,0.00
2023-03-24T01:27:01.183Z,0.00
2023-03-24T01:28:01.171Z,0.00
2023-03-24T01:29:01.146Z,0.00
2023-03-24T01:30:02.129Z,0.00
2023-03-24T01:31:01.141Z,0.00
2023-03-24T01:32:01.186Z,0.00
2023-03-24T01:33:01.134Z,0.00
2023-03-24T01:34:01.128Z,0.00
2023-03-24T01:35:01.121Z,0.00
2023-03-24T01:36:01.156Z,0.00
2023-03-24T01:37:01.092Z,0.00
2023-03-24T01:38:01.045Z,0.00
2023-03-24T01:39:01.177Z,0.00
2023-03-24T01:40:01.095Z,0.00
2023-03-24T01:41:01.056Z,0.00
2023-03-24T01:42:01.053Z,0.00
2023-03-24T01:43:01.017Z,0.00
2023-03-24T01:44:01.007Z,0.00
2023-03-24T01:45:01.008Z,0.00
2023-03-24T01:46:01.690Z,0.00
2023-03-24T01:47:00.980Z,0.00
2023-03-24T01:48:00.981Z,0.00
2023-03-24T01:49:00.962Z,0.00
2023-03-24T01:50:00.941Z,0.00
2023-03-24T01:51:00.985Z,0.00
2023-03-24T01:52:00.945Z,0.00
2023-03-24T01:53:00.898Z,0.00
2023-03-24T01:54:00.881Z,0.00
2023-03-24T01:55:01.710Z,0.00
2023-03-24T01:56:00.883Z,0.00
2023-03-24T01:57:00.933Z,0.00
2023-03-24T01:58:00.841Z,0.00
2023-03-24T01:59:00.853Z,0.00
2023-03-24T02:00:00.856Z,0.00
2023-03-24T02:01:00.847Z,0.00
2023-03-24T02:02:00.817Z,0.00
2023-03-24T02:03:00.866Z,0.00
2023-03-24T02:04:00.810Z,0.00
2023-03-24T02:05:00.778Z,0.00
2023-03-24T02:06:00.781Z,0.00
2023-03-24T02:07:00.773Z,0.00
2023-03-24T02:08:00.825Z,0.00
2023-03-24T02:09:00.724Z,0.00
2023-03-24T02:10:00.706Z,0.00
2023-03-24T02:11:00.714Z,0.00
2023-03-24T02:12:00.707Z,0.00
2023-03-24T02:13:00.739Z,0.00
2023-03-24T02:14:00.674Z,0.00
2023-03-24T02:15:00.694Z,0.00
2023-03-24T02:16:00.681Z,0.00
2023-03-24T02:17:00.646Z,0.00
2023-03-24T02:18:00.724Z,0.00
2023-03-24T02:19:00.618Z,0.00
2023-03-24T02:20:00.643Z,0.00
2023-03-24T02:21:00.601Z,0.00
2023-03-24T02:22:00.601Z,0.00
2023-03-24T02:23:00.626Z,0.00
2023-03-24T02:24:00.592Z,0.00
2023-03-24T02:25:00.569Z,0.00
2023-03-24T02:26:00.562Z,0.00
2023-03-24T02:27:00.544Z,0.00
2023-03-24T02:28:00.604Z,0.00
2023-03-24T02:29:00.504Z,0.00
2023-03-24T02:30:00.524Z,0.00
2023-03-24T02:31:00.500Z,0.00
2023-03-24T02:32:00.568Z,0.00
2023-03-24T02:33:00.537Z,0.00
2023-03-24T02:34:00.598Z,0.00
2023-03-24T02:35:00.477Z,0.00
2023-03-24T02:36:00.535Z,0.00
2023-03-24T02:37:00.430Z,0.00
2023-03-24T02:38:00.482Z,0.00
2023-03-24T02:39:00.442Z,0.00
2023-03-24T02:40:00.444Z,0.00
2023-03-24T02:41:00.383Z,0.00
2023-03-24T02:42:00.401Z,0.00
2023-03-24T02:43:00.365Z,0.00
2023-03-24T02:44:00.609Z,0.00
2023-03-24T02:45:00.400Z,0.00
2023-03-24T02:46:00.397Z,0.00
2023-03-24T02:47:00.350Z,0.00
2023-03-24T02:48:00.452Z,0.00
2023-03-24T02:49:00.308Z,0.00
2023-03-24T02:50:00.306Z,0.00
2023-03-24T02:51:00.479Z,0.00
2023-03-24T02:52:00.291Z,0.00
2023-03-24T02:53:00.264Z,0.00
2023-03-24T02:54:00.295Z,0.00
2023-03-24T02:55:00.255Z,0.00
2023-03-24T02:56:00.261Z,0.00
2023-03-24T02:57:00.332Z,0.00
2023-03-24T02:58:00.227Z,0.00
2023-03-24T02:59:00.241Z,0.00
2023-03-24T03:00:00.202Z,0.00
2023-03-24T03:01:01.220Z,0.00
2023-03-24T03:02:00.214Z,0.00
2023-03-24T03:03:00.215Z,0.00
2023-03-24T03:04:00.206Z,0.00
2023-03-24T03:05:00.142Z,0.00
2023-03-24T03:06:00.149Z,0.00
2023-03-24T03:07:01.068Z,0.00
2023-03-24T03:08:00.175Z,0.00
2023-03-24T03:09:00.158Z,0.00
2023-03-24T03:10:00.117Z,0.00
2023-03-24T03:11:00.095Z,0.00
2023-03-24T03:12:00.097Z,0.00
2023-03-24T03:13:00.047Z,0.00
2023-03-24T03:14:00.073Z,0.00
2023-03-24T03:15:00.035Z,0.00
2023-03-24T03:16:00.153Z,0.00
2023-03-24T03:17:00.063Z,0.00
2023-03-24T03:18:00.041Z,0.00
2023-03-24T03:18:59.997Z,0.00
2023-03-24T03:20:00.048Z,0.00
2023-03-24T03:21:00.757Z,0.00
2023-03-24T03:21:59.973Z,0.00
2023-03-24T03:23:00.004Z,0.00
2023-03-24T03:23:59.977Z,0.00
2023-03-24T03:24:59.940Z,0.00
2023-03-24T03:25:59.921Z,0.00
2023-03-24T03:26:59.902Z,0.00
2023-03-24T03:28:02.593Z,0.00
2023-03-24T03:28:59.945Z,0.00
2023-03-24T03:29:59.916Z,0.00
2023-03-24T03:31:00.272Z,0.00
2023-03-24T03:31:59.997Z,0.00
2023-03-24T03:32:59.927Z,0.00
2023-03-24T03:33:59.864Z,0.00
2023-03-24T03:34:59.856Z,0.00
2023-03-24T03:35:59.902Z,0.00
2023-03-24T03:36:59.799Z,0.00
2023-03-24T03:38:00.598Z,0.00
2023-03-24T03:38:59.815Z,0.00
2023-03-24T03:39:59.791Z,0.00
2023-03-24T03:41:03.707Z,0.00
2023-03-24T03:41:59.904Z,0.00
2023-03-24T03:42:59.877Z,0.00
2023-03-24T03:43:59.841Z,0.00
2023-03-24T03:44:59.724Z,0.00
2023-03-24T03:45:59.739Z,0.00
2023-03-24T03:46:59.718Z,0.00
2023-03-24T03:47:59.760Z,0.00
2023-03-24T03:48:59.704Z,0.00
2023-03-24T03:49:59.698Z,0.00
2023-03-24T03:51:12.272Z,0.00
2023-03-24T03:51:59.674Z,0.00
2023-03-24T03:52:59.637Z,0.00
2023-03-24T03:53:59.645Z,0.00
2023-03-24T03:54:59.701Z,0.00
2023-03-24T03:55:59.617Z,0.00
2023-03-24T03:56:59.654Z,0.00
2023-03-24T03:57:59.601Z,0.00
2023-03-24T03:59:03.671Z,0.00
2023-03-24T03:59:59.604Z,0.00
2023-03-24T04:00:59.577Z,0.00
2023-03-24T04:01:59.596Z,0.00
2023-03-24T04:02:59.641Z,0.00
2023-03-24T04:03:59.619Z,0.00
2023-03-24T04:05:05.754Z,0.00
2023-03-24T04:05:59.521Z,0.00
2023-03-24T04:06:59.531Z,0.00
2023-03-24T04:07:59.495Z,0.00
2023-03-24T04:08:59.472Z,0.00
2023-03-24T04:09:59.483Z,0.00
2023-03-24T04:10:59.461Z,0.00
2023-03-24T04:11:59.487Z,0.00
2023-03-24T04:12:59.449Z,0.00
2023-03-24T04:13:59.469Z,0.00
2023-03-24T04:14:59.410Z,0.00
2023-03-24T04:15:59.440Z,0.00
2023-03-24T04:16:59.417Z,0.00
2023-03-24T04:17:59.450Z,0.00
2023-03-24T04:18:59.376Z,0.00
2023-03-24T04:19:59.371Z,0.00
2023-03-24T04:21:02.080Z,0.00
2023-03-24T04:21:59.383Z,0.00
2023-03-24T04:22:59.355Z,0.00
2023-03-24T04:23:59.356Z,0.00
2023-03-24T04:24:59.361Z,0.00
2023-03-24T04:25:59.305Z,0.00
2023-03-24T04:26:59.278Z,0.00
2023-03-24T04:27:59.301Z,0.00
2023-03-24T04:29:02.119Z,0.00
2023-03-24T04:29:59.264Z,0.00
2023-03-24T04:30:59.250Z,0.00
2023-03-24T04:31:59.240Z,0.00
2023-03-24T04:32:59.279Z,0.00
2023-03-24T04:33:59.232Z,0.00
2023-03-24T04:34:59.204Z,0.00
2023-03-24T04:35:59.226Z,0.00
2023-03-24T04:36:59.204Z,0.00
2023-03-24T04:37:59.195Z,0.00
2023-03-24T04:38:59.197Z,0.00
2023-03-24T04:39:59.239Z,0.00
2023-03-24T04:40:59.159Z,0.00
2023-03-24T04:41:59.181Z,0.00
2023-03-24T04:42:59.115Z,0.00
2023-03-24T04:43:59.169Z,0.00
2023-03-24T04:44:59.112Z,0.00
2023-03-24T04:45:59.157Z,0.00
2023-03-24T04:46:59.697Z,0.00
2023-03-24T04:47:59.110Z,0.00
2023-03-24T04:48:59.059Z,0.00
2023-03-24T04:49:59.091Z,0.00
2023-03-24T04:50:59.042Z,0.00
2023-03-24T04:51:59.059Z,0.00
2023-03-24T04:52:59.044Z,0.00
2023-03-24T04:53:59.001Z,0.00
2023-03-24T04:54:59.031Z,0.00
2023-03-24T04:55:59.050Z,0.00
2023-03-24T04:56:59.062Z,0.00
2023-03-24T04:57:59.057Z,0.00
2023-03-24T04:58:58.966Z,0.00
2023-03-24T04:59:59.003Z,0.00
2023-03-24T05:00:59.019Z,0.00
2023-03-24T05:01:58.948Z,0.00
2023-03-24T05:02:58.951Z,0.00
2023-03-24T05:03:58.987Z,0.00
2023-03-24T05:04:58.900Z,0.00
2023-03-24T05:05:58.857Z,0.00
2023-03-24T05:06:58.956Z,0.00
2023-03-24T05:08:00.436Z,0.00
2023-03-24T05:08:58.955Z,0.00
2023-03-24T05:09:58.859Z,0.00
2023-03-24T05:10:58.801Z,0.00
2023-03-24T05:12:00.470Z,0.00
2023-03-24T05:12:58.789Z,0.00
2023-03-24T05:13:58.752Z,0.00
2023-03-24T05:14:58.766Z,0.00
2023-03-24T05:15:58.758Z,0.00
2023-03-24T05:16:58.756Z,0.00
2023-03-24T05:17:58.776Z,0.00
2023-03-24T05:18:58.721Z,0.00
2023-03-24T05:19:58.686Z,0.00
2023-03-24T05:20:58.658Z,0.00
2023-03-24T05:21:58.696Z,0.00
2023-03-24T05:22:58.639Z,0.00
2023-03-24T05:23:58.665Z,0.00
2023-03-24T05:24:58.621Z,0.00
2023-03-24T05:25:58.633Z,0.00
2023-03-24T05:26:58.606Z,0.00
2023-03-24T05:27:58.625Z,0.00
2023-03-24T05:28:58.634Z,0.00
2023-03-24T05:29:58.567Z,0.00
2023-03-24T05:30:58.612Z,0.00
2023-03-24T05:31:58.587Z,0.00
2023-03-24T05:32:58.564Z,0.00
2023-03-24T05:33:58.580Z,0.00
2023-03-24T05:34:58.534Z,0.00
2023-03-24T05:35:58.588Z,0.00
2023-03-24T05:36:58.510Z,0.00
2023-03-24T05:37:58.498Z,0.00
2023-03-24T05:38:58.514Z,0.00
2023-03-24T05:39:58.472Z,0.00
2023-03-24T05:40:58.480Z,0.00
2023-03-24T05:41:58.445Z,0.00
2023-03-24T05:42:58.475Z,0.00
2023-03-24T05:43:58.481Z,0.00
2023-03-24T05:44:58.431Z,0.00
2023-03-24T05:45:58.487Z,0.00
2023-03-24T05:46:58.424Z,0.00
2023-03-24T05:47:58.468Z,0.00
2023-03-24T05:48:58.392Z,0.00
2023-03-24T05:49:58.396Z,0.00
2023-03-24T05:50:58.633Z,0.00
2023-03-24T05:51:58.344Z,0.00
2023-03-24T05:52:58.351Z,0.00
2023-03-24T05:53:58.333Z,0.00
2023-03-24T05:54:58.376Z,0.00
2023-03-24T05:55:58.315Z,0.00
2023-03-24T05:56:58.328Z,0.00
2023-03-24T05:58:00.268Z,0.00
2023-03-24T05:58:58.269Z,0.00
2023-03-24T05:59:58.306Z,0.00
2023-03-24T06:00:58.353Z,0.00
2023-03-24T06:01:58.272Z,0.00
2023-03-24T06:02:58.323Z,0.00
2023-03-24T06:03:58.403Z,0.00
2023-03-24T06:04:58.199Z,0.00
2023-03-24T06:05:58.263Z,0.00
2023-03-24T06:06:58.316Z,0.00
2023-03-24T06:07:58.189Z,5.62
2023-03-24T06:08:58.156Z,5.62
2023-03-24T06:09:58.342Z,5.62
2023-03-24T06:10:58.144Z,11.25
2023-03-24T06:12:00.102Z,11.25
2023-03-24T06:12:58.147Z,11.25
2023-03-24T06:13:58.142Z,11.25
2023-03-24T06:14:58.162Z,16.88
2023-03-24T06:15:58.113Z,16.88
2023-03-24T06:16:58.069Z,16.88
2023-03-24T06:17:58.132Z,16.88
2023-03-24T06:18:58.056Z,16.88
2023-03-24T06:19:58.062Z,22.50
2023-03-24T06:20:58.033Z,22.50
2023-03-24T06:21:58.055Z,28.12
2023-03-24T06:22:58.035Z,22.50
2023-03-24T06:23:58.631Z,22.50
2023-03-24T06:24:58.021Z,22.50
2023-03-24T06:25:58.057Z,16.88
2023-03-24T06:26:58.006Z,16.88
2023-03-24T06:27:58.002Z,16.88
2023-03-24T06:28:57.951Z,16.88
2023-03-24T06:29:57.959Z,16.88
2023-03-24T06:30:57.994Z,16.88
2023-03-24T06:31:57.944Z,16.88
2023-03-24T06:32:58.077Z,16.88
2023-03-24T06:33:58.000Z,16.88
2023-03-24T06:34:57.902Z,16.88
2023-03-24T06:35:57.949Z,16.88
2023-03-24T06:36:57.910Z,22.50
2023-03-24T06:37:57.867Z,22.50
2023-03-24T06:38:57.878Z,22.50
2023-03-24T06:39:57.844Z,22.50
2023-03-24T06:40:57.892Z,22.50
2023-03-24T06:41:57.871Z,22.50
2023-03-24T06:42:57.808Z,22.50
2023-03-24T06:43:57.833Z,22.50
2023-03-24T06:44:57.815Z,22.50
2023-03-24T06:46:04.741Z,28.12
2023-03-24T06:46:57.800Z,28.12
2023-03-24T06:47:57.868Z,33.75
2023-03-24T06:48:57.770Z,33.75
2023-03-24T06:49:57.771Z,33.75
2023-03-24T06:50:57.942Z,39.38
2023-03-24T06:51:57.734Z,33.75
2023-03-24T06:52:57.721Z,33.75
2023-03-24T06:53:57.697Z,33.75
2023-03-24T06:54:57.780Z,39.38
2023-03-24T06:55:57.712Z,39.38
2023-03-24T06:56:57.747Z,39.38
2023-03-24T06:57:57.654Z,39.38
2023-03-24T06:58:57.718Z,33.75
2023-03-24T06:59:57.666Z,39.38
2023-03-24T07:00:57.691Z,45.00
2023-03-24T07:01:57.647Z,45.00
2023-03-24T07:02:57.635Z,45.00
2023-03-24T07:03:57.680Z,45.00
2023-03-24T07:04:57.583Z,50.62
2023-03-24T07:05:57.585Z,50.62
2023-03-24T07:07:12.501Z,50.62
2023-03-24T07:08:57.540Z,45.00
2023-03-24T07:09:57.520Z,56.25
2023-03-24T07:10:57.522Z,56.25
2023-03-24T07:11:57.524Z,45.00
2023-03-24T07:12:57.509Z,45.00
2023-03-24T07:13:57.551Z,45.00
2023-03-24T07:14:57.477Z,56.25
2023-03-24T07:15:57.586Z,45.00
2023-03-24T07:16:57.488Z,45.00
2023-03-24T07:17:57.483Z,50.62
2023-03-24T07:18:57.475Z,50.62
2023-03-24T07:19:57.491Z,73.12
2023-03-24T07:20:57.595Z,61.88
2023-03-24T07:21:57.504Z,50.62
2023-03-24T07:22:57.392Z,50.62
2023-03-24T07:23:57.386Z,39.38
2023-03-24T07:24:57.370Z,45.00
2023-03-24T07:25:57.689Z,45.00
2023-03-24T07:26:57.426Z,73.12
2023-03-24T07:27:57.338Z,73.12
2023-03-24T07:28:57.339Z,50.62
2023-03-24T07:29:57.359Z,67.50
2023-03-24T07:30:57.683Z,45.00
2023-03-24T07:31:57.455Z,73.12
2023-03-24T07:32:57.491Z,67.50
2023-03-24T07:33:59.007Z,67.50
2023-03-24T07:34:57.334Z,61.88
2023-03-24T07:35:58.009Z,67.50
2023-03-24T07:36:58.337Z,67.50
2023-03-24T07:37:57.282Z,73.12
2023-03-24T07:38:57.253Z,73.12
2023-03-24T07:39:57.333Z,50.62
2023-03-24T07:40:57.237Z,61.88
2023-03-24T07:41:57.211Z,78.75
2023-03-24T07:42:57.229Z,50.62
2023-03-24T07:43:57.197Z,78.75
2023-03-24T07:44:57.250Z,84.38
2023-03-24T07:45:57.199Z,90.00
2023-03-24T07:46:57.171Z,73.12
2023-03-24T07:47:57.288Z,61.88
2023-03-24T07:49:01.196Z,67.50
2023-03-24T07:49:57.420Z,95.62
2023-03-24T07:50:57.188Z,56.25
2023-03-24T07:51:57.133Z,61.88
2023-03-24T07:52:59.840Z,61.88
2023-03-24T07:53:57.389Z,78.75
2023-03-24T07:54:57.067Z,61.88
2023-03-24T07:55:57.053Z,56.25
2023-03-24T07:56:57.088Z,67.50
2023-03-24T07:57:57.093Z,67.50
2023-03-24T07:58:57.087Z,61.88
2023-03-24T07:59:57.150Z,61.88
2023-03-24T08:00:57.021Z,61.88
2023-03-24T08:01:59.792Z,56.25
2023-03-24T08:02:57.713Z,56.25
2023-03-24T08:03:57.036Z,56.25
2023-03-24T08:04:56.973Z,61.88
2023-03-24T08:05:57.263Z,50.62
2023-03-24T08:06:57.177Z,56.25
2023-03-24T08:07:57.023Z,56.25
2023-03-24T08:08:56.964Z,56.25
2023-03-24T08:09:57.074Z,67.50
2023-03-24T08:10:56.901Z,78.75
2023-03-24T08:11:57.892Z,95.62
2023-03-24T08:12:56.932Z,67.50
2023-03-24T08:13:56.875Z,61.88
2023-03-24T08:14:57.480Z,61.88
2023-03-24T08:15:56.855Z,61.88
2023-03-24T08:16:57.034Z,56.25
2023-03-24T08:17:57.251Z,61.88
2023-03-24T08:18:56.954Z,73.12
2023-03-24T08:20:00.780Z,95.62
2023-03-24T08:20:56.950Z,67.50
2023-03-24T08:21:56.806Z,106.88
2023-03-24T08:22:56.910Z,101.25
2023-03-24T08:23:56.780Z,61.88
2023-03-24T08:24:56.805Z,73.12
2023-03-24T08:25:57.130Z,73.12
2023-03-24T08:26:56.753Z,112.50
2023-03-24T08:27:56.802Z,78.75
2023-03-24T08:28:56.766Z,84.38
2023-03-24T08:29:56.732Z,84.38
2023-03-24T08:30:56.746Z,84.38
2023-03-24T08:31:56.776Z,73.12
2023-03-24T08:32:56.767Z,73.12
2023-03-24T08:33:56.715Z,78.75
2023-03-24T08:34:56.808Z,56.25
2023-03-24T08:35:56.720Z,56.25
2023-03-24T08:36:56.641Z,67.50
2023-03-24T08:37:56.674Z,73.12
2023-03-24T08:38:56.639Z,78.75
2023-03-24T08:39:56.617Z,101.25
2023-03-24T08:40:56.679Z,61.88
2023-03-24T08:41:56.583Z,61.88
2023-03-24T08:42:56.576Z,101.25
2023-03-24T08:43:56.595Z,50.62
2023-03-24T08:44:56.547Z,56.25
2023-03-24T08:45:56.640Z,56.25
2023-03-24T08:46:56.583Z,61.88
2023-03-24T08:47:56.897Z,61.88
2023-03-24T08:48:56.509Z,61.88
2023-03-24T08:49:56.471Z,61.88
2023-03-24T08:50:56.481Z,56.25
2023-03-24T08:51:56.464Z,50.62
2023-03-24T08:52:56.782Z,56.25
2023-03-24T08:53:56.442Z,56.25
2023-03-24T08:54:56.434Z,67.50
2023-03-24T08:55:56.409Z,78.75
2023-03-24T08:56:56.473Z,84.38
2023-03-24T08:57:57.012Z,73.12
2023-03-24T08:58:56.403Z,73.12
2023-03-24T08:59:56.392Z,90.00
2023-03-24T09:00:56.761Z,90.00
2023-03-24T09:01:56.460Z,95.62
2023-03-24T09:02:56.452Z,123.75
2023-03-24T09:03:56.349Z,84.38
2023-03-24T09:04:56.361Z,67.50
2023-03-24T09:05:56.674Z,67.50
2023-03-24T09:06:56.288Z,73.12
2023-03-24T09:07:56.304Z,61.88
2023-03-24T09:08:56.671Z,67.50
2023-03-24T09:09:56.276Z,78.75
2023-03-24T09:10:56.280Z,95.62
2023-03-24T09:11:56.235Z,67.50
2023-03-24T09:12:56.450Z,56.25
2023-03-24T09:13:56.321Z,56.25
2023-03-24T09:14:56.251Z,61.88
2023-03-24T09:15:56.226Z,84.38
2023-03-24T09:16:56.228Z,90.00
2023-03-24T09:17:56.240Z,84.38
2023-03-24T09:18:56.240Z,73.12
2023-03-24T09:19:56.198Z,61.88
2023-03-24T09:20:56.188Z,61.88
2023-03-24T09:21:56.185Z,61.88
2023-03-24T09:22:56.172Z,73.12
2023-03-24T09:23:56.118Z,73.12
2023-03-24T09:24:56.113Z,84.38
2023-03-24T09:25:56.228Z,84.38
2023-03-24T09:26:56.096Z,106.88
2023-03-24T09:27:56.062Z,67.50
2023-03-24T09:28:56.071Z,56.25
2023-03-24T09:29:56.056Z,50.62
2023-03-24T09:30:56.105Z,56.25
2023-03-24T09:31:56.069Z,61.88
2023-03-24T09:32:56.078Z,73.12
2023-03-24T09:33:56.193Z,95.62
2023-03-24T09:34:56.085Z,106.88
2023-03-24T09:35:57.794Z,101.25
2023-03-24T09:36:56.036Z,95.62
2023-03-24T09:37:55.972Z,90.00
2023-03-24T09:38:55.958Z,90.00
2023-03-24T09:39:56.149Z,84.38
2023-03-24T09:40:55.983Z,73.12
2023-03-24T09:41:56.289Z,67.50
2023-03-24T09:42:56.013Z,67.50
2023-03-24T09:43:55.940Z,67.50
2023-03-24T09:44:55.926Z,73.12
2023-03-24T09:45:55.912Z,61.88
2023-03-24T09:46:55.914Z,56.25
2023-03-24T09:47:55.903Z,50.62
2023-03-24T09:48:55.859Z,50.62
2023-03-24T09:49:55.844Z,50.62
2023-03-24T09:50:55.834Z,56.25
2023-03-24T09:51:55.852Z,56.25
2023-03-24T09:52:55.811Z,56.25
2023-03-24T09:53:55.820Z,56.25
2023-03-24T09:54:56.110Z,61.88
2023-03-24T09:55:55.959Z,50.62
2023-03-24T09:56:55.902Z,50.62
2023-03-24T09:57:55.820Z,45.00
2023-03-24T09:58:55.753Z,39.38
2023-03-24T09:59:55.753Z,45.00
2023-03-24T10:00:57.531Z,50.62
2023-03-24T10:01:55.907Z,50.62
2023-03-24T10:02:57.578Z,50.62
2023-03-24T10:03:55.781Z,56.25
2023-03-24T10:04:55.812Z,73.12
2023-03-24T10:05:55.693Z,73.12
2023-03-24T10:06:56.336Z,90.00
2023-03-24T10:07:55.653Z,84.38
2023-03-24T10:08:56.450Z,73.12
2023-03-24T10:09:55.660Z,78.75
2023-03-24T10:10:55.816Z,67.50
2023-03-24T10:11:55.821Z,67.50
2023-03-24T10:12:55.638Z,73.12
2023-03-24T10:13:55.631Z,73.12
2023-03-24T10:14:55.718Z,73.12
2023-03-24T10:15:55.946Z,84.38
2023-03-24T10:16:55.625Z,112.50
2023-03-24T10:17:55.553Z,118.12
2023-03-24T10:18:55.587Z,112.50
2023-03-24T10:19:59.613Z,101.25
2023-03-24T10:20:56.204Z,146.25
2023-03-24T10:21:55.527Z,146.25
2023-03-24T10:22:55.590Z,151.88
2023-03-24T10:23:55.494Z,168.75
2023-03-24T10:24:55.517Z,157.50
2023-03-24T10:25:55.496Z,151.88
2023-03-24T10:26:55.495Z,123.75
2023-03-24T10:27:55.497Z,123.75
2023-03-24T10:28:55.475Z,129.38
2023-03-24T10:29:55.430Z,135.00
2023-03-24T10:30:55.561Z,208.12
2023-03-24T10:31:55.853Z,202.50
2023-03-24T10:32:56.031Z,163.12
2023-03-24T10:33:55.440Z,135.00
2023-03-24T10:34:55.434Z,123.75
2023-03-24T10:35:55.924Z,123.75
2023-03-24T10:36:55.428Z,112.50
2023-03-24T10:37:55.367Z,348.75
2023-03-24T10:38:55.336Z,67.50
2023-03-24T10:39:55.707Z,73.12
2023-03-24T10:40:55.310Z,84.38
2023-03-24T10:41:55.315Z,84.38
2023-03-24T10:43:07.321Z,78.75
2023-03-24T10:43:55.441Z,78.75
2023-03-24T10:44:55.328Z,84.38
2023-03-24T10:45:55.659Z,73.12
2023-03-24T10:46:55.274Z,61.88
2023-03-24T10:47:55.311Z,56.25
2023-03-24T10:48:55.229Z,56.25
2023-03-24T10:49:55.226Z,61.88
2023-03-24T10:50:55.235Z,67.50
2023-03-24T10:51:55.376Z,67.50
2023-03-24T10:52:55.184Z,50.62
2023-03-24T10:53:55.226Z,50.62
2023-03-24T10:54:55.145Z,50.62
2023-03-24T10:55:55.207Z,56.25
2023-03-24T10:56:55.542Z,56.25
2023-03-24T10:57:55.161Z,50.62
2023-03-24T10:58:55.109Z,50.62
2023-03-24T10:59:55.134Z,50.62
2023-03-24T11:00:55.260Z,45.00
2023-03-24T11:01:55.235Z,45.00
2023-03-24T11:02:55.178Z,45.00
2023-03-24T11:03:55.066Z,39.38
2023-03-24T11:04:55.049Z,45.00
2023-03-24T11:05:55.030Z,50.62
2023-03-24T11:06:55.040Z,56.25
2023-03-24T11:07:55.055Z,56.25
2023-03-24T11:08:55.047Z,56.25
2023-03-24T11:09:55.026Z,50.62
2023-03-24T11:10:55.157Z,45.00
2023-03-24T11:11:55.370Z,39.38
2023-03-24T11:12:55.457Z,45.00
2023-03-24T11:13:55.057Z,50.62
2023-03-24T11:14:54.951Z,56.25
2023-03-24T11:15:54.946Z,56.25
2023-03-24T11:16:55.001Z,67.50
2023-03-24T11:17:55.112Z,67.50
2023-03-24T11:18:54.973Z,56.25
2023-03-24T11:19:54.931Z,50.62
2023-03-24T11:20:54.903Z,45.00
2023-03-24T11:21:54.876Z,45.00
2023-03-24T11:22:54.880Z,45.00
2023-03-24T11:23:54.888Z,39.38
2023-03-24T11:24:54.904Z,28.12
2023-03-24T11:25:54.828Z,28.12
2023-03-24T11:26:54.801Z,22.50
2023-03-24T11:27:54.809Z,22.50
2023-03-24T11:28:54.839Z,28.12
2023-03-24T11:29:55.147Z,28.12
2023-03-24T11:30:54.873Z,33.75
2023-03-24T11:31:54.768Z,39.38
2023-03-24T11:32:54.853Z,39.38
2023-03-24T11:33:54.751Z,45.00
2023-03-24T11:34:54.718Z,56.25
2023-03-24T11:36:05.144Z,67.50
2023-03-24T11:36:54.737Z,78.75
2023-03-24T11:37:54.726Z,95.62
2023-03-24T11:38:54.697Z,112.50
2023-03-24T11:39:54.780Z,112.50
2023-03-24T11:40:54.675Z,112.50
2023-03-24T11:41:54.655Z,112.50
2023-03-24T11:42:54.667Z,95.62
2023-03-24T11:43:54.682Z,78.75
2023-03-24T11:44:54.624Z,67.50
2023-03-24T11:45:54.668Z,56.25
2023-03-24T11:46:54.653Z,56.25
2023-03-24T11:47:54.726Z,50.62
2023-03-24T11:48:54.738Z,45.00
2023-03-24T11:49:54.600Z,39.38
2023-03-24T11:50:54.556Z,39.38
2023-03-24T11:51:54.567Z,39.38
2023-03-24T11:52:54.773Z,45.00
2023-03-24T11:53:54.544Z,50.62
2023-03-24T11:54:54.556Z,50.62
2023-03-24T11:55:54.503Z,50.62
2023-03-24T11:56:54.567Z,56.25
2023-03-24T11:57:54.510Z,67.50
2023-03-24T11:58:54.483Z,90.00
2023-03-24T11:59:54.585Z,146.25
2023-03-24T12:00:54.981Z,326.25
2023-03-24T12:01:54.473Z,416.25
2023-03-24T12:02:54.704Z,174.38
2023-03-24T12:03:54.874Z,168.75
2023-03-24T12:04:54.449Z,174.38
2023-03-24T12:05:54.739Z,596.25
2023-03-24T12:06:54.381Z,601.88
2023-03-24T12:07:54.382Z,461.25
2023-03-24T12:08:54.367Z,686.25
2023-03-24T12:09:54.365Z,433.12
2023-03-24T12:10:54.530Z,500.62
2023-03-24T12:11:54.436Z,675.00
2023-03-24T12:12:54.358Z,483.75
2023-03-24T12:13:54.369Z,635.62
2023-03-24T12:14:54.373Z,742.50
2023-03-24T12:15:54.365Z,708.75
2023-03-24T12:16:54.829Z,286.88
2023-03-24T12:17:55.568Z,230.62
2023-03-24T12:18:55.265Z,360.00
2023-03-24T12:19:54.361Z,376.88
2023-03-24T12:20:54.337Z,241.88
2023-03-24T12:21:54.568Z,264.38
2023-03-24T12:22:54.235Z,523.12
2023-03-24T12:23:54.231Z,213.75
2023-03-24T12:24:54.270Z,202.50
2023-03-24T12:25:54.249Z,185.62
2023-03-24T12:26:54.249Z,191.25
2023-03-24T12:27:54.427Z,196.88
2023-03-24T12:28:54.161Z,146.25
2023-03-24T12:29:54.183Z,129.38
2023-03-24T12:30:54.139Z,191.25
2023-03-24T12:31:54.397Z,185.62
2023-03-24T12:32:54.186Z,146.25
2023-03-24T12:33:54.206Z,118.12
2023-03-24T12:34:54.087Z,123.75
2023-03-24T12:35:54.150Z,168.75
2023-03-24T12:36:54.374Z,112.50
2023-03-24T12:37:54.133Z,106.88
2023-03-24T12:38:54.091Z,112.50
2023-03-24T12:39:54.098Z,118.12
2023-03-24T12:40:54.346Z,118.12
2023-03-24T12:41:54.043Z,123.75
2023-03-24T12:42:54.008Z,118.12
2023-03-24T12:43:54.035Z,118.12
2023-03-24T12:44:54.274Z,123.75
2023-03-24T12:45:54.018Z,123.75
2023-03-24T12:46:54.368Z,123.75
2023-03-24T12:47:54.049Z,118.12
2023-03-24T12:48:54.018Z,112.50
2023-03-24T12:49:53.997Z,106.88
2023-03-24T12:50:53.951Z,90.00
2023-03-24T12:51:53.986Z,78.75
2023-03-24T12:53:06.692Z,78.75
2023-03-24T12:53:53.910Z,90.00
2023-03-24T12:54:53.962Z,95.62
2023-03-24T12:55:54.061Z,95.62
2023-03-24T12:56:53.948Z,95.62
2023-03-24T12:57:53.909Z,78.75
2023-03-24T12:58:54.072Z,78.75
2023-03-24T12:59:53.896Z,90.00
2023-03-24T13:00:53.856Z,84.38
2023-03-24T13:01:53.852Z,84.38